Time;durP1;ratioP1;P1;durP2;ratioP2;P2;SDS_P1;SDS_P2;PMS_P1;PMS_P2;Temp;Humidity;BMP_temperature;BMP_pressure;BME280_temperature;BME280_humidity;BME280_pressure;Samples;Min_cycle;Max_cycle;Signal;HPM_P1;HPM_P2
2024/01/23 00:02:00;;;;;;;96.72;35.38;;;;;;;-6.66;74.40;94961.75;5103707;28;20047;-77
2024/01/23 00:04:26;;;;;;;94.70;34.03;;;;;;;-6.63;73.93;94955.41;5103911;28;20227;-77
2024/01/23 00:06:51;;;;;;;91.97;33.83;;;;;;;-6.62;73.87;94959.59;5104058;28;20056;-77
2024/01/23 00:09:17;;;;;;;110.63;40.40;;;;;;;-6.63;73.51;94962.38;5103221;28;20307;-78
2024/01/23 00:11:42;;;;;;;125.38;43.88;;;;;;;-6.73;74.08;94968.66;5103788;28;20028;-78
2024/01/23 00:14:08;;;;;;;118.05;44.72;;;;;;;-6.79;74.79;94974.56;5103975;28;20065;-78
2024/01/23 00:16:34;;;;;;;128.85;49.30;;;;;;;-6.82;74.79;94972.28;5104029;28;20036;-78
2024/01/23 00:18:59;;;;;;;120.20;44.20;;;;;;;-6.84;74.99;94971.66;5103724;28;20030;-78
2024/01/23 00:21:24;;;;;;;115.10;40.38;;;;;;;-6.90;75.23;94959.41;5103945;28;20031;-78
2024/01/23 00:23:51;;;;;;;100.50;35.13;;;;;;;-6.92;75.60;94958.78;5103661;28;20036;-78
2024/01/23 00:26:17;;;;;;;91.18;34.75;;;;;;;-6.93;75.98;94954.59;5103831;28;20035;-78
2024/01/23 00:28:42;;;;;;;111.47;36.95;;;;;;;-6.93;76.06;94954.59;5103567;28;20139;-78
2024/01/23 00:31:08;;;;;;;104.93;36.60;;;;;;;-6.92;75.83;94948.44;5103622;28;20024;-79
2024/01/23 00:33:33;;;;;;;101.75;36.25;;;;;;;-6.88;75.23;94944.50;5103715;28;20083;-78
2024/01/23 00:35:58;;;;;;;103.45;36.75;;;;;;;-6.89;75.10;94938.50;5103137;28;20039;-78
2024/01/23 00:38:24;;;;;;;94.38;34.35;;;;;;;-6.89;74.78;94942.91;5103219;28;20055;-78
2024/01/23 00:40:49;;;;;;;106.85;35.63;;;;;;;-6.90;74.66;94925.72;5103649;28;20028;-77
2024/01/23 00:43:15;;;;;;;103.05;33.50;;;;;;;-6.87;74.14;94935.75;5103613;28;20032;-77
2024/01/23 00:45:40;;;;;;;105.88;34.22;;;;;;;-6.87;73.61;94930.56;5107568;28;20032;-77
2024/01/23 00:48:05;;;;;;;105.97;32.60;;;;;;;-6.88;73.24;94929.78;5107678;28;20043;-77
2024/01/23 00:50:31;;;;;;;111.38;34.30;;;;;;;-6.91;73.04;94935.28;5107530;28;20346;-77
2024/01/23 00:52:56;;;;;;;101.05;31.80;;;;;;;-6.93;73.30;94934.66;5107188;28;20023;-77
2024/01/23 00:55:22;;;;;;;121.57;39.28;;;;;;;-7.01;73.63;94931.38;5107331;28;20039;-77
2024/01/23 00:57:47;;;;;;;107.38;39.70;;;;;;;-7.05;74.04;94933.50;5107136;28;20055;-75
2024/01/23 01:00:13;;;;;;;116.95;42.75;;;;;;;-7.06;74.43;94919.75;5107183;28;20031;-75
2024/01/23 01:02:38;;;;;;;108.82;40.28;;;;;;;-7.05;74.82;94920.53;5107161;28;20043;-77
2024/01/23 01:05:04;;;;;;;121.63;42.05;;;;;;;-7.04;74.60;94911.81;5107151;28;20028;-77
2024/01/23 01:07:29;;;;;;;109.78;39.35;;;;;;;-7.07;74.81;94909.56;5106906;28;20024;-77
2024/01/23 01:09:55;;;;;;;118.28;37.75;;;;;;;-7.08;74.48;94908.75;5106062;28;20024;-76
2024/01/23 01:12:21;;;;;;;107.55;36.10;;;;;;;-7.11;74.34;94910.88;5107256;28;20027;-77
2024/01/23 01:14:46;;;;;;;104.35;35.60;;;;;;;-7.07;74.18;94904.38;5107120;28;20034;-75
2024/01/23 01:17:11;;;;;;;114.10;36.00;;;;;;;-7.06;73.74;94911.97;5107015;28;20047;-75
2024/01/23 01:19:37;;;;;;;117.40;36.28;;;;;;;-7.08;73.66;94911.34;5106675;28;20051;-75
2024/01/23 01:22:03;;;;;;;90.38;30.88;;;;;;;-7.12;73.01;94902.31;5106662;28;20016;-75
2024/01/23 01:24:28;;;;;;;97.97;34.40;;;;;;;-7.18;73.38;94890.06;5106384;28;20024;-75
2024/01/23 01:26:53;;;;;;;100.78;35.08;;;;;;;-7.18;72.86;94890.06;5106814;28;20134;-75
2024/01/23 01:29:19;;;;;;;84.65;30.20;;;;;;;-7.20;72.63;94894.63;5106603;28;20028;-76
2024/01/23 01:31:44;;;;;;;91.47;30.55;;;;;;;-7.25;72.36;94889.16;5106728;28;20020;-75
2024/01/23 01:34:09;;;;;;;109.47;35.67;;;;;;;-7.31;72.48;94892.47;5105268;28;20019;-75
2024/01/23 01:36:35;;;;;;;87.13;28.52;;;;;;;-7.34;72.51;94885.84;5106288;28;20035;-75
2024/01/23 01:39:02;;;;;;;89.47;32.58;;;;;;;-7.40;71.98;94883.19;5106167;28;20020;-76
2024/01/23 01:41:27;;;;;;;104.63;37.17;;;;;;;-7.48;72.23;94887.44;5106406;28;20058;-76
2024/01/23 01:43:52;;;;;;;112.40;38.80;;;;;;;-7.55;72.17;94881.38;5106284;28;20028;-76
2024/01/23 01:46:28;;;;;;;121.15;40.67;;;;;;;-7.60;72.06;94878.50;5106085;28;20031;-75
2024/01/23 01:48:54;;;;;;;120.68;39.50;;;;;;;-7.73;72.04;94878.28;5105087;28;20067;-75
2024/01/23 01:51:22;;;;;;;114.53;37.78;;;;;;;-7.77;72.23;94874.44;5106314;28;20196;-75
2024/01/23 01:53:48;;;;;;;112.07;40.22;;;;;;;-7.79;72.35;94879.00;5106117;28;20065;-76
2024/01/23 01:56:14;;;;;;;114.68;41.53;;;;;;;-7.86;72.90;94873.69;5105912;28;20023;-75
2024/01/23 01:58:41;;;;;;;90.85;36.70;;;;;;;-7.89;73.15;94874.06;5105788;28;20028;-75
2024/01/23 02:01:07;;;;;;;114.80;38.75;;;;;;;-7.85;73.22;94871.94;5105825;28;20070;-76
2024/01/23 02:03:32;;;;;;;94.80;31.98;;;;;;;-7.84;73.15;94871.72;5105717;28;20028;-75
2024/01/23 02:06:00;;;;;;;77.78;29.15;;;;;;;-7.83;73.95;94865.59;5104798;28;20219;-75
2024/01/23 02:08:27;;;;;;;73.45;26.98;;;;;;;-7.87;74.81;94859.94;5106010;28;20055;-75
2024/01/23 02:10:54;;;;;;;61.38;24.35;;;;;;;-7.81;75.38;94858.47;5105835;28;20051;-76
2024/01/23 02:13:19;;;;;;;77.50;25.40;;;;;;;-7.81;75.71;94860.25;5105638;28;20028;-77
2024/01/23 02:15:45;;;;;;;75.88;26.27;;;;;;;-7.84;75.82;94852.81;5105593;28;20055;-77
2024/01/23 02:18:10;;;;;;;76.80;27.52;;;;;;;-7.80;75.14;94846.31;5105455;28;20028;-77
2024/01/23 02:20:35;;;;;;;81.68;28.42;;;;;;;-7.76;75.32;94850.16;5105528;28;20031;-77
2024/01/23 02:23:01;;;;;;;80.95;29.15;;;;;;;-7.73;75.07;94858.38;5104075;28;20026;-77
2024/01/23 02:25:26;;;;;;;76.22;28.65;;;;;;;-7.75;74.95;94855.16;5105410;28;20016;-78
2024/01/23 02:27:53;;;;;;;75.28;27.70;;;;;;;-7.81;74.51;94858.47;5105426;28;20132;-77
2024/01/23 02:30:18;;;;;;;58.45;21.77;;;;;;;-7.82;74.13;94848.28;5104090;28;20219;-77
2024/01/23 02:32:44;;;;;;;68.00;24.13;;;;;;;-7.85;74.01;94839.06;5105194;28;20028;-77
2024/01/23 02:35:09;;;;;;;68.35;25.35;;;;;;;-7.92;74.53;94838.94;5105357;28;20016;-77
2024/01/23 02:37:36;;;;;;;75.97;27.48;;;;;;;-7.95;74.50;94843.69;5105164;28;20367;-77
2024/01/23 02:40:01;;;;;;;61.67;23.45;;;;;;;-7.96;74.72;94832.50;5105151;28;20094;-79
2024/01/23 02:42:27;;;;;;;75.45;25.42;;;;;;;-7.91;74.35;94825.03;5105119;28;20028;-79
2024/01/23 02:44:52;;;;;;;74.30;24.50;;;;;;;-7.87;74.08;94809.97;5105127;28;20031;-79
2024/01/23 02:47:17;;;;;;;70.07;23.20;;;;;;;-7.85;74.08;94822.75;5105015;28;20024;-78
2024/01/23 02:49:43;;;;;;;75.25;23.98;;;;;;;-7.85;74.00;94813.19;5104883;28;20020;-77
2024/01/23 02:52:08;;;;;;;73.40;25.60;;;;;;;-7.83;73.98;94815.63;5104943;28;20316;-77
2024/01/23 02:54:33;;;;;;;78.97;27.33;;;;;;;-7.79;73.72;94803.94;5104921;28;20020;-77
2024/01/23 02:56:59;;;;;;;79.38;26.83;;;;;;;-7.78;73.81;94806.31;5104758;28;20047;-78
2024/01/23 02:59:25;;;;;;;74.05;26.73;;;;;;;-7.75;73.02;94808.56;5104830;28;20032;-77
2024/01/23 03:01:50;;;;;;;86.13;25.55;;;;;;;-7.81;73.24;94798.13;5104621;28;20115;-78
2024/01/23 03:04:16;;;;;;;78.18;26.25;;;;;;;-7.80;73.41;94800.50;5104619;28;20322;-77
2024/01/23 03:06:41;;;;;;;69.55;23.63;;;;;;;-7.78;73.51;94800.34;5103945;28;20118;-77
2024/01/23 03:09:10;;;;;;;65.72;23.55;;;;;;;-7.75;73.21;94793.03;5104533;28;20180;-76
2024/01/23 03:11:38;;;;;;;58.50;21.42;;;;;;;-7.80;73.12;94789.38;5104392;28;20020;-77
2024/01/23 03:14:03;;;;;;;58.88;21.17;;;;;;;-7.78;73.00;94788.19;5104416;28;20081;-78
2024/01/23 03:16:29;;;;;;;62.03;23.35;;;;;;;-7.75;72.81;94781.88;5104261;28;20327;-78
2024/01/23 03:18:54;;;;;;;51.80;17.85;;;;;;;-7.73;72.53;94775.53;5104191;28;20015;-78
2024/01/23 03:21:20;;;;;;;54.45;19.02;;;;;;;-7.77;72.65;94781.25;5104253;28;20070;-77
2024/01/23 03:23:45;;;;;;;47.90;16.15;;;;;;;-7.78;72.42;94779.63;5104199;28;20035;-78
2024/01/23 03:26:11;;;;;;;48.85;17.40;;;;;;;-7.84;72.35;94768.22;5104137;28;20035;-78
2024/01/23 03:28:36;;;;;;;101.95;31.85;;;;;;;-7.90;72.26;94767.13;5104136;28;20020;-77
2024/01/23 03:31:01;;;;;;;81.85;30.90;;;;;;;-7.95;72.30;94761.69;5103859;28;20095;-80
2024/01/23 03:33:27;;;;;;;118.47;35.33;;;;;;;-7.98;72.36;94758.63;5103987;28;20026;-78
2024/01/23 03:35:52;;;;;;;100.53;37.75;;;;;;;-8.01;72.82;94744.28;5104121;28;20027;-78
2024/01/23 03:38:18;;;;;;;97.57;33.88;;;;;;;-8.05;72.91;94745.63;5104161;28;20034;-78
2024/01/23 03:40:43;;;;;;;92.57;31.10;;;;;;;-8.05;72.90;94748.19;5103750;28;20020;-79
2024/01/23 03:43:09;;;;;;;61.40;21.75;;;;;;;-8.07;73.14;94747.56;5103735;28;20020;-78
2024/01/23 03:45:34;;;;;;;83.70;30.17;;;;;;;-8.08;72.83;94746.78;5103814;28;20020;-78
2024/01/23 03:48:03;;;;;;;77.85;27.63;;;;;;;-8.09;72.84;94742.56;5104070;28;20024;-78
2024/01/23 03:50:29;;;;;;;60.60;23.67;;;;;;;-8.08;72.55;94744.19;5104130;28;20016;-77
2024/01/23 03:52:54;;;;;;;87.63;29.77;;;;;;;-8.13;72.52;94743.09;5104227;28;20030;-78
2024/01/23 03:55:19;;;;;;;72.78;26.00;;;;;;;-8.13;72.87;94741.31;5103956;28;20016;-78
2024/01/23 03:57:45;;;;;;;62.60;21.05;;;;;;;-8.09;72.30;94734.00;5103712;28;20034;-78
2024/01/23 04:00:11;;;;;;;47.97;17.88;;;;;;;-8.07;71.96;94737.22;5103606;28;20015;-76
2024/01/23 04:02:37;;;;;;;47.22;17.25;;;;;;;-8.10;71.41;94729.81;5102272;28;20062;-77
2024/01/23 04:05:04;;;;;;;54.95;19.35;;;;;;;-8.16;71.43;94720.16;5103544;28;20043;-79
2024/01/23 04:07:31;;;;;;;59.67;22.90;;;;;;;-8.17;71.57;94726.31;5103726;28;20031;-79
2024/01/23 04:09:56;;;;;;;59.65;23.17;;;;;;;-8.21;71.80;94730.25;5103519;28;20020;-79
2024/01/23 04:12:22;;;;;;;71.28;25.83;;;;;;;-8.24;71.86;94725.41;5103629;28;20112;-79
2024/01/23 04:14:47;;;;;;;77.22;26.40;;;;;;;-8.24;71.56;94736.56;5103331;28;20012;-79
2024/01/23 04:17:13;;;;;;;119.63;36.92;;;;;;;-8.32;71.77;94728.88;5103327;28;20039;-78
2024/01/23 04:19:38;;;;;;;86.10;30.88;;;;;;;-8.36;71.97;94740.56;5102563;28;20027;-78
2024/01/23 04:22:04;;;;;;;88.32;30.92;;;;;;;-8.40;72.09;94727.16;5103332;28;20389;-79
2024/01/23 04:24:29;;;;;;;113.97;35.60;;;;;;;-8.45;71.89;94734.66;5103241;28;20028;-77
2024/01/23 04:26:55;;;;;;;117.20;39.42;;;;;;;-8.51;71.64;94725.00;5103573;28;20150;-77
2024/01/23 04:29:20;;;;;;;103.18;39.22;;;;;;;-8.57;72.16;94733.47;5103146;28;20042;-77
2024/01/23 04:31:45;;;;;;;99.85;38.10;;;;;;;-8.66;72.19;94734.53;5103107;28;20024;-77
2024/01/23 04:34:11;;;;;;;112.63;38.30;;;;;;;-8.71;71.99;94722.09;5103118;28;20024;-77
2024/01/23 04:36:36;;;;;;;108.43;37.30;;;;;;;-8.81;72.38;94722.34;5101995;28;20311;-77
2024/01/23 04:39:02;;;;;;;94.43;35.17;;;;;;;-8.84;72.61;94717.50;5103010;28;20061;-77
2024/01/23 04:41:27;;;;;;;118.88;38.72;;;;;;;-8.91;72.74;94722.56;5102830;28;20096;-78
2024/01/23 04:43:53;;;;;;;107.93;39.13;;;;;;;-9.00;72.69;94710.66;5102972;28;20310;-77
2024/01/23 04:46:18;;;;;;;123.90;41.00;;;;;;;-9.08;73.09;94710.72;5103113;28;20024;-77
2024/01/23 04:48:46;;;;;;;125.00;41.35;;;;;;;-9.13;73.48;94720.78;5103044;28;20326;-77
2024/01/23 04:51:12;;;;;;;111.72;37.35;;;;;;;-9.13;73.74;94725.94;5103010;28;20345;-77
2024/01/23 04:53:37;;;;;;;107.65;36.67;;;;;;;-9.20;72.95;94725.78;5102812;28;20024;-77
2024/01/23 04:56:03;;;;;;;121.05;40.72;;;;;;;-9.32;73.15;94727.16;5102884;28;20107;-78
2024/01/23 04:58:29;;;;;;;116.97;40.38;;;;;;;-9.40;73.12;94730.59;5102602;28;20024;-77
2024/01/23 05:00:55;;;;;;;120.32;38.67;;;;;;;-9.52;73.19;94725.00;5102484;28;20051;-77
2024/01/23 05:03:20;;;;;;;99.63;34.83;;;;;;;-9.57;73.85;94723.88;5102545;28;20032;-77
2024/01/23 05:05:46;;;;;;;112.30;36.63;;;;;;;-9.58;74.33;94723.09;5102653;28;20322;-78
2024/01/23 05:08:11;;;;;;;110.47;34.25;;;;;;;-9.58;74.12;94722.28;5102856;28;20023;-77
2024/01/23 05:10:36;;;;;;;108.70;37.08;;;;;;;-9.61;74.68;94726.00;5102625;28;20203;-76
2024/01/23 05:13:02;;;;;;;101.50;34.95;;;;;;;-9.58;74.85;94722.28;5102524;28;20218;-76
2024/01/23 05:15:27;;;;;;;118.75;37.83;;;;;;;-9.55;74.89;94724.53;5102709;28;20047;-77
2024/01/23 05:17:53;;;;;;;80.72;32.90;;;;;;;-9.54;75.11;94723.56;5102581;28;20020;-77
2024/01/23 05:20:19;;;;;;;111.28;36.50;;;;;;;-9.53;74.89;94728.53;5102615;28;20027;-76
2024/01/23 05:22:45;;;;;;;91.43;32.33;;;;;;;-9.52;74.33;94727.56;5102708;28;20196;-76
2024/01/23 05:25:10;;;;;;;104.47;36.60;;;;;;;-9.52;74.11;94717.25;5102478;28;20085;-76
2024/01/23 05:27:36;;;;;;;119.40;36.92;;;;;;;-9.49;73.77;94722.06;5102336;28;20103;-76
2024/01/23 05:30:05;;;;;;;114.95;38.13;;;;;;;-9.51;74.09;94713.69;5103957;28;20043;-76
2024/01/23 05:32:30;;;;;;;101.90;36.72;;;;;;;-9.50;74.36;94707.56;5106282;28;20016;-81
2024/01/23 05:34:55;;;;;;;109.25;38.72;;;;;;;-9.47;74.20;94714.16;5106851;28;20023;-82
2024/01/23 05:37:25;;;;;;;100.80;35.28;;;;;;;-9.43;74.15;94707.69;5107602;28;20020;-79
2024/01/23 05:39:50;;;;;;;108.40;36.92;;;;;;;-9.34;73.62;94708.44;5105095;28;20098;-78
2024/01/23 05:42:16;;;;;;;110.20;36.40;;;;;;;-9.31;73.31;94702.97;5106445;28;20012;-76
2024/01/23 05:44:41;;;;;;;102.22;36.70;;;;;;;-9.31;73.58;94692.63;5105863;28;20066;-76
2024/01/23 05:47:07;;;;;;;104.28;35.33;;;;;;;-9.26;73.06;94695.50;5106122;28;20019;-77
2024/01/23 05:49:32;;;;;;;94.38;35.20;;;;;;;-9.24;73.19;94695.31;5106059;28;20091;-76
2024/01/23 05:51:58;;;;;;;103.72;34.67;;;;;;;-9.23;73.01;94690.00;5106343;28;20057;-79
2024/01/23 05:54:23;;;;;;;107.47;37.42;;;;;;;-9.23;72.91;94684.84;5106684;28;20214;-75
2024/01/23 05:56:48;;;;;;;99.18;35.08;;;;;;;-9.19;73.09;94686.09;5105839;28;20034;-73
2024/01/23 05:59:15;;;;;;;123.10;38.47;;;;;;;-9.12;72.65;94676.72;5105805;28;20043;-74
2024/01/23 06:01:40;;;;;;;121.22;39.90;;;;;;;-9.14;72.29;94676.06;5105564;28;20302;-74
2024/01/23 06:04:09;;;;;;;158.98;49.83;;;;;;;-9.12;72.78;94676.72;5105713;28;20016;-74
2024/01/23 06:06:42;;;;;;;127.15;42.92;;;;;;;-9.12;72.65;94679.28;5105811;28;20226;-75
2024/01/23 06:09:09;;;;;;;113.78;37.83;;;;;;;-9.15;72.61;94679.63;5106105;28;20027;-74
2024/01/23 06:11:35;;;;;;;126.35;41.30;;;;;;;-9.17;72.70;94673.03;5105933;28;20161;-74
2024/01/23 06:14:00;;;;;;;105.30;37.88;;;;;;;-9.18;72.66;94685.13;5105628;28;20245;-74
2024/01/23 06:16:26;;;;;;;120.72;40.75;;;;;;;-9.21;72.57;94685.47;5105430;28;20057;-74
2024/01/23 06:18:51;;;;;;;114.60;38.97;;;;;;;-9.24;72.37;94696.13;5106015;28;20334;-69
2024/01/23 06:21:16;;;;;;;98.50;36.60;;;;;;;-9.30;72.96;94696.81;5105314;28;20115;-68
2024/01/23 06:23:42;;;;;;;106.55;37.58;;;;;;;-9.41;72.91;94703.16;5105131;28;20318;-68
2024/01/23 06:26:08;;;;;;;108.55;38.55;;;;;;;-9.51;73.08;94718.84;5105075;28;20027;-67
2024/01/23 06:28:33;;;;;;;113.43;39.28;;;;;;;-9.57;73.41;94723.88;5105489;28;20020;-67
2024/01/23 06:30:59;;;;;;;104.38;37.17;;;;;;;-9.64;73.60;94721.19;5105573;28;20041;-68
2024/01/23 06:33:24;;;;;;;118.57;41.05;;;;;;;-9.74;74.20;94725.72;5104383;28;20324;-68
2024/01/23 06:35:49;;;;;;;120.35;39.65;;;;;;;-9.77;74.80;94728.63;5103516;28;20083;-68
2024/01/23 06:38:15;;;;;;;111.28;37.45;;;;;;;-9.84;75.69;94743.97;5104105;28;20032;-68
2024/01/23 06:40:40;;;;;;;113.35;41.63;;;;;;;-9.86;75.60;94742.53;5103109;28;20082;-68
2024/01/23 06:43:06;;;;;;;121.97;39.65;;;;;;;-10.00;76.38;94734.50;5102568;28;20214;-68
2024/01/23 06:45:31;;;;;;;107.70;37.83;;;;;;;-9.93;76.61;94743.19;5103575;28;20024;-68
2024/01/23 06:47:57;;;;;;;125.45;38.75;;;;;;;-9.93;76.95;94748.34;5103949;28;20087;-67
2024/01/23 06:50:22;;;;;;;124.38;42.17;;;;;;;-9.90;77.21;94745.44;5103053;28;20326;-67
2024/01/23 06:52:47;;;;;;;121.57;39.78;;;;;;;-9.83;77.89;94749.94;5102609;28;20095;-68
2024/01/23 06:55:13;;;;;;;118.82;40.55;;;;;;;-9.72;78.08;94752.97;5102781;28;20134;-68
2024/01/23 06:57:38;;;;;;;137.02;44.03;;;;;;;-9.57;78.02;94754.84;5103071;28;20153;-68
2024/01/23 07:00:04;;;;;;;120.35;43.33;;;;;;;-9.45;77.88;94748.34;5102908;28;20024;-68
2024/01/23 07:02:30;;;;;;;125.75;41.13;;;;;;;-9.34;78.05;94757.50;5102842;28;20111;-68
2024/01/23 07:04:55;;;;;;;107.88;41.35;;;;;;;-9.24;77.69;94750.34;5103031;28;20046;-68
2024/01/23 07:07:21;;;;;;;117.22;41.70;;;;;;;-9.05;77.90;94748.34;5103636;28;20091;-68
2024/01/23 07:09:46;;;;;;;117.18;41.80;;;;;;;-8.92;77.37;94733.06;5104472;28;20051;-67
2024/01/23 07:12:12;;;;;;;115.88;42.03;;;;;;;-8.74;77.04;94725.84;5104435;28;20315;-68
2024/01/23 07:14:37;;;;;;;122.28;41.13;;;;;;;-8.58;76.83;94724.91;5103158;28;20024;-68
2024/01/23 07:17:03;;;;;;;119.78;40.08;;;;;;;-8.40;76.63;94718.63;5104707;28;20062;-67
2024/01/23 07:19:28;;;;;;;121.93;42.97;;;;;;;-8.24;76.60;94709.88;5104577;28;20264;-67
2024/01/23 07:21:53;;;;;;;107.70;40.47;;;;;;;-8.07;76.81;94701.78;5104537;28;20028;-69
2024/01/23 07:24:19;;;;;;;123.82;42.88;;;;;;;-7.89;76.74;94695.47;5107236;28;20090;-68
2024/01/23 07:26:45;;;;;;;107.65;37.33;;;;;;;-7.73;76.84;94702.28;5104751;28;20314;-67
2024/01/23 07:29:10;;;;;;;102.47;37.90;;;;;;;-7.54;77.15;94699.13;5104225;28;20031;-68
2024/01/23 07:31:37;;;;;;;91.25;35.65;;;;;;;-7.32;77.24;94709.53;5104145;28;20035;-68
2024/01/23 07:34:03;;;;;;;94.53;33.60;;;;;;;-7.14;77.07;94712.53;5105434;28;20265;-68
2024/01/23 07:36:28;;;;;;;107.22;38.38;;;;;;;-6.94;76.84;94723.13;5104135;28;20102;-68
2024/01/23 07:38:53;;;;;;;111.95;37.92;;;;;;;-6.69;76.40;94728.75;5104350;28;20050;-68
2024/01/23 07:41:19;;;;;;;110.55;39.60;;;;;;;-6.59;75.48;94735.41;5103827;28;20043;-68
2024/01/23 07:43:45;;;;;;;124.72;43.78;;;;;;;-6.60;75.15;94726.84;5103636;28;20295;-68
2024/01/23 07:46:10;;;;;;;112.63;41.85;;;;;;;-6.57;74.34;94731.66;5104052;28;20318;-68
2024/01/23 07:48:36;;;;;;;122.38;44.17;;;;;;;-6.59;73.88;94728.44;5104145;28;20023;-69
2024/01/23 07:51:01;;;;;;;129.38;45.50;;;;;;;-6.58;73.73;94731.84;5104114;28;20234;-68
2024/01/23 07:53:29;;;;;;;133.48;46.47;;;;;;;-6.59;73.46;94744.00;5103178;28;20377;-66
2024/01/23 07:55:54;;;;;;;154.98;52.10;;;;;;;-6.61;73.63;94738.22;5103936;28;20027;-70
2024/01/23 07:58:20;;;;;;;126.22;47.20;;;;;;;-6.61;73.72;94732.19;5103898;28;20016;-68
2024/01/23 08:00:45;;;;;;;128.43;47.45;;;;;;;-6.57;74.48;94728.25;5103585;28;20052;-68
2024/01/23 08:03:10;;;;;;;128.35;49.47;;;;;;;-6.48;74.69;94729.75;5103550;28;20073;-68
2024/01/23 08:05:36;;;;;;;125.53;48.38;;;;;;;-6.33;74.25;94727.88;5103707;28;20195;-68
2024/01/23 08:08:02;;;;;;;131.48;49.03;;;;;;;-6.22;74.55;94731.75;5103618;28;20024;-68
2024/01/23 08:10:29;;;;;;;145.13;50.50;;;;;;;-6.09;74.43;94726.66;5103804;28;20032;-68
2024/01/23 08:12:55;;;;;;;143.45;51.30;;;;;;;-5.96;74.23;94725.97;5102530;28;20077;-68
2024/01/23 08:15:23;;;;;;;135.90;50.83;;;;;;;-5.82;73.45;94726.00;5103526;28;20219;-68
2024/01/23 08:17:49;;;;;;;126.07;46.42;;;;;;;-5.73;73.47;94717.88;5103251;28;20020;-67
2024/01/23 08:20:14;;;;;;;125.07;47.22;;;;;;;-5.88;73.84;94723.19;5102847;28;20341;-60
2024/01/23 08:22:39;;;;;;;122.25;47.15;;;;;;;-5.80;74.03;94724.84;5103524;28;20095;-67
2024/01/23 08:25:05;;;;;;;141.57;51.25;;;;;;;-5.71;73.79;94721.09;5103009;28;20134;-67
2024/01/23 08:27:31;;;;;;;148.07;53.55;;;;;;;-5.70;72.75;94729.69;5103084;28;20043;-67
2024/01/23 08:29:56;;;;;;;124.47;49.33;;;;;;;-5.72;72.87;94726.47;5102887;28;20024;-68
2024/01/23 08:32:21;;;;;;;128.00;50.03;;;;;;;-5.66;72.97;94730.91;5103316;28;20059;-67
2024/01/23 08:34:47;;;;;;;138.23;48.08;;;;;;;-5.62;72.81;94732.13;5102648;28;20138;-68
2024/01/23 08:37:14;;;;;;;129.98;49.42;;;;;;;-5.59;73.25;94736.94;5102727;28;20028;-68
2024/01/23 08:39:40;;;;;;;137.43;49.03;;;;;;;-5.52;73.15;94729.97;5102871;28;20326;-68
2024/01/23 08:42:05;;;;;;;133.48;47.70;;;;;;;-5.48;73.09;94727.81;5102969;28;20052;-68
2024/01/23 08:44:31;;;;;;;126.88;47.45;;;;;;;-5.38;73.55;94737.84;5103092;28;20133;-68
2024/01/23 08:46:56;;;;;;;143.98;51.17;;;;;;;-5.28;73.04;94740.91;5102628;28;20043;-69
2024/01/23 08:49:21;;;;;;;136.27;50.70;;;;;;;-5.18;72.79;94732.75;5103425;28;20383;-68
2024/01/23 08:51:47;;;;;;;140.25;49.88;;;;;;;-5.15;72.93;94727.16;5102917;28;20253;-68
2024/01/23 08:54:18;;;;;;;137.40;48.05;;;;;;;-5.10;73.22;94730.00;5102680;28;20078;-68
2024/01/23 08:56:44;;;;;;;134.65;47.30;;;;;;;-5.01;73.33;94728.00;5102843;28;20330;-69
2024/01/23 08:59:10;;;;;;;129.35;46.55;;;;;;;-4.90;72.63;94725.66;5103285;28;20031;-74
2024/01/23 09:01:35;;;;;;;120.95;44.97;;;;;;;-4.79;72.05;94716.47;5102849;28;20420;-74
2024/01/23 09:04:03;;;;;;;133.60;47.40;;;;;;;-4.72;71.10;94717.31;5102932;28;20043;-74
2024/01/23 09:06:29;;;;;;;111.55;40.92;;;;;;;-4.80;71.30;94720.09;5106517;28;20200;-73
2024/01/23 09:08:54;;;;;;;104.78;42.25;;;;;;;-4.70;71.13;94719.69;5107105;28;20329;-74
2024/01/23 09:12:01;;;;;;;113.05;42.80;;;;;;;-4.67;70.79;94714.09;5107269;28;20115;-74
2024/01/23 09:14:26;;;;;;;120.72;39.13;;;;;;;-4.71;70.91;94710.28;5106176;28;20047;-72
2024/01/23 09:16:52;;;;;;;102.78;40.45;;;;;;;-4.61;70.44;94708.09;5106778;28;20222;-72
2024/01/23 09:19:17;;;;;;;116.15;42.03;;;;;;;-4.54;70.18;94703.72;5106541;28;20042;-73
2024/01/23 09:21:43;;;;;;;104.80;37.80;;;;;;;-4.43;69.82;94704.94;5106287;28;20038;-75
2024/01/23 09:24:08;;;;;;;100.90;37.33;;;;;;;-4.38;69.77;94694.72;5106663;28;20087;-76
2024/01/23 09:26:34;;;;;;;96.00;37.20;;;;;;;-4.31;69.70;94690.31;5106423;28;20322;-72
2024/01/23 09:29:00;;;;;;;110.97;39.13;;;;;;;-4.21;69.95;94695.13;5105991;28;20184;-78
2024/01/23 09:31:25;;;;;;;117.35;42.05;;;;;;;-4.06;69.70;94689.72;5106328;28;20024;-76
2024/01/23 09:33:51;;;;;;;102.65;41.75;;;;;;;-4.02;68.58;94685.69;5106648;28;20028;-78
2024/01/23 09:36:16;;;;;;;110.50;40.95;;;;;;;-3.93;68.80;94684.50;5106573;28;20400;-78
2024/01/23 09:38:42;;;;;;;115.43;43.92;;;;;;;-3.87;68.88;94683.69;5106544;28;20023;-79
2024/01/23 09:41:12;;;;;;;119.00;44.60;;;;;;;-3.77;68.50;94679.84;5106580;28;20016;-78
2024/01/23 09:43:42;;;;;;;121.05;42.95;;;;;;;-3.65;67.45;94680.81;5106801;28;20039;-78
2024/01/23 09:46:11;;;;;;;127.40;47.15;;;;;;;-3.56;67.82;94682.22;5106198;28;20058;-78
2024/01/23 09:48:38;;;;;;;117.68;45.30;;;;;;;-3.50;66.62;94670.16;5105007;28;20044;-78
2024/01/23 09:51:11;;;;;;;116.18;43.47;;;;;;;-3.41;66.34;94673.34;5106352;28;20019;-79
2024/01/23 09:53:39;;;;;;;114.03;43.85;;;;;;;-3.40;64.82;94664.50;5106067;28;20024;-79
2024/01/23 09:56:06;;;;;;;108.32;41.78;;;;;;;-3.37;65.43;94667.50;5105815;28;20020;-75
2024/01/23 09:58:32;;;;;;;100.90;43.67;;;;;;;-3.29;66.05;94654.25;5106227;28;20035;-76
2024/01/23 10:00:59;;;;;;;124.40;47.13;;;;;;;-3.13;67.07;94663.41;5105780;28;20043;-76
2024/01/23 10:03:26;;;;;;;115.25;45.53;;;;;;;-2.94;66.22;94664.31;5106051;28;20031;-76
2024/01/23 10:05:52;;;;;;;124.22;47.60;;;;;;;-2.85;65.51;94650.03;5105939;28;20107;-75
2024/01/23 10:08:18;;;;;;;127.57;48.60;;;;;;;-2.72;65.22;94648.34;5105618;28;20354;-77
2024/01/23 10:10:44;;;;;;;132.80;50.13;;;;;;;-2.60;64.90;94657.09;5105860;28;20024;-75
2024/01/23 10:13:13;;;;;;;123.55;50.58;;;;;;;-2.51;63.71;94647.19;5105379;28;20087;-75
2024/01/23 10:15:38;;;;;;;124.50;50.38;;;;;;;-2.51;64.65;94652.41;5105014;28;20024;-75
2024/01/23 10:18:05;;;;;;;132.07;52.97;;;;;;;-2.36;63.30;94647.69;5103386;28;20031;-74
2024/01/23 10:20:31;;;;;;;139.05;52.20;;;;;;;-2.26;62.61;94642.78;5104529;28;20329;-74
2024/01/23 10:22:58;;;;;;;121.82;50.58;;;;;;;-2.25;62.54;94636.53;5105274;28;20028;-75
2024/01/23 10:25:28;;;;;;;139.25;53.60;;;;;;;-2.19;62.34;94628.84;5105563;28;20023;-75
2024/01/23 10:27:54;;;;;;;145.07;55.30;;;;;;;-2.17;63.00;94616.38;5105736;28;20064;-76
2024/01/23 10:30:20;;;;;;;147.63;57.40;;;;;;;-2.01;63.73;94610.59;5105373;28;20043;-76
2024/01/23 10:32:46;;;;;;;146.65;58.95;;;;;;;-1.78;64.63;94606.56;5105427;28;20030;-74
2024/01/23 10:35:11;;;;;;;139.57;62.30;;;;;;;-1.66;65.29;94615.25;5105357;28;20020;-75
2024/01/23 10:37:38;;;;;;;161.05;62.95;;;;;;;-1.46;65.38;94610.59;5105267;28;20215;-76
2024/01/23 10:40:05;;;;;;;164.98;64.88;;;;;;;-1.31;62.06;94614.66;5105259;28;20016;-75
2024/01/23 10:42:31;;;;;;;140.05;61.17;;;;;;;-1.25;60.84;94617.19;5105146;28;20258;-75
2024/01/23 10:44:58;;;;;;;147.32;62.05;;;;;;;-1.22;60.00;94598.44;5105014;28;20034;-75
2024/01/23 10:47:24;;;;;;;156.45;62.30;;;;;;;-1.16;59.93;94598.56;5104980;28;20016;-75
2024/01/23 10:49:50;;;;;;;150.73;59.88;;;;;;;-1.04;60.75;94602.03;5104923;28;20051;-76
2024/01/23 10:52:18;;;;;;;162.15;60.25;;;;;;;-0.98;61.18;94588.06;5104799;28;20035;-75
2024/01/23 10:54:46;;;;;;;150.10;61.10;;;;;;;-0.84;58.72;94591.28;5104616;28;20107;-76
2024/01/23 10:57:21;;;;;;;154.80;60.10;;;;;;;-0.81;58.62;94583.00;5104504;28;20088;-76
2024/01/23 10:59:50;;;;;;;155.45;61.58;;;;;;;-0.82;57.88;94584.00;5104645;28;20011;-75
2024/01/23 11:02:37;;;;;;;144.55;59.30;;;;;;;-0.83;57.65;94577.19;5104415;28;20279;-75
2024/01/23 11:05:06;;;;;;;150.02;60.10;;;;;;;-0.85;57.63;94564.31;5103490;28;20311;-75
2024/01/23 11:07:49;;;;;;;154.10;59.58;;;;;;;-0.86;57.74;94569.78;5104517;28;20020;-76